sensor_id;sensor_type;location;lat;lon;timestamp;pressure;altitude;pressure_sealevel;temperature;humidity
28310;BME280;15571;50.974;13.936;2023-03-23T00:33:08;99360.66;;;12.03;100.00
28310;BME280;15571;50.974;13.936;2023-03-23T00:36:15;99351.91;;;12.04;100.00
28310;BME280;15571;50.974;13.936;2023-03-23T00:39:22;99348.41;;;12.03;100.00
28310;BME280;15571;50.974;13.936;2023-03-23T00:42:31;99350.13;;;12.04;100.00
28310;BME280;15571;50.974;13.936;2023-03-23T00:45:38;99348.38;;;12.05;100.00
28310;BME280;15571;50.974;13.936;2023-03-23T00:48:46;99347.56;;;12.03;100.00
28310;BME280;15571;50.974;13.936;2023-03-23T00:51:54;99337.88;;;12.05;100.00
28310;BME280;15571;50.974;13.936;2023-03-23T00:54:59;99337.88;;;12.05;100.00
28310;BME280;15571;50.974;13.936;2023-03-23T00:58:01;99330.91;;;12.04;100.00
28310;BME280;15571;50.974;13.936;2023-03-23T01:01:07;99331.75;;;12.04;100.00
28310;BME280;15571;50.974;13.936;2023-03-23T01:04:14;99336.06;;;12.07;100.00
28310;BME280;15571;50.974;13.936;2023-03-23T01:07:22;99323.88;;;12.04;100.00
28310;BME280;15571;50.974;13.936;2023-03-23T01:10:32;99329.09;;;12.06;100.00
28310;BME280;15571;50.974;13.936;2023-03-23T01:13:37;99323.84;;;12.06;100.00
28310;BME280;15571;50.974;13.936;2023-03-23T01:16:42;99322.16;;;12.05;100.00
28310;BME280;15571;50.974;13.936;2023-03-23T01:19:54;99315.13;;;12.05;100.00
28310;BME280;15571;50.974;13.936;2023-03-23T01:22:59;99309.94;;;12.04;100.00
28310;BME280;15571;50.974;13.936;2023-03-23T01:26:08;99307.25;;;12.05;100.00
28310;BME280;15571;50.974;13.936;2023-03-23T01:29:12;99302.06;;;12.04;100.00
28310;BME280;15571;50.974;13.936;2023-03-23T01:32:18;99295.91;;;12.05;100.00
28310;BME280;15571;50.974;13.936;2023-03-23T01:35:22;99284.59;;;12.03;100.00
28310;BME280;15571;50.974;13.936;2023-03-23T01:38:28;99295.94;;;12.03;100.00
28310;BME280;15571;50.974;13.936;2023-03-23T01:41:42;99281.09;;;12.02;100.00
28310;BME280;15571;50.974;13.936;2023-03-23T01:48:09;99274.13;;;12.01;100.00
28310;BME280;15571;50.974;13.936;2023-03-23T01:51:17;99270.66;;;12.01;100.00
28310;BME280;15571;50.974;13.936;2023-03-23T01:54:24;99273.28;;;12.01;100.00
28310;BME280;15571;50.974;13.936;2023-03-23T01:57:31;99273.28;;;12.01;100.00
28310;BME280;15571;50.974;13.936;2023-03-23T02:00:35;99266.31;;;11.99;100.00
28310;BME280;15571;50.974;13.936;2023-03-23T02:03:42;99275.06;;;11.98;100.00
28310;BME280;15571;50.974;13.936;2023-03-23T02:06:47;99268.09;;;11.97;100.00
28310;BME280;15571;50.974;13.936;2023-03-23T02:09:56;99271.59;;;11.96;100.00
28310;BME280;15571;50.974;13.936;2023-03-23T02:13:06;99268.19;;;11.94;100.00
28310;BME280;15571;50.974;13.936;2023-03-23T02:16:14;99258.66;;;11.90;100.00
28310;BME280;15571;50.974;13.936;2023-03-23T02:19:38;99258.72;;;11.87;100.00
28310;BME280;15571;50.974;13.936;2023-03-23T02:22:50;99264.91;;;11.84;100.00
28310;BME280;15571;50.974;13.936;2023-03-23T02:26:14;99250.97;;;11.82;100.00
28310;BME280;15571;50.974;13.936;2023-03-23T02:29:53;99258.00;;;11.82;100.00
28310;BME280;15571;50.974;13.936;2023-03-23T02:33:30;99265.91;;;11.80;100.00
28310;BME280;15571;50.974;13.936;2023-03-23T02:36:38;99257.22;;;11.78;100.00
28310;BME280;15571;50.974;13.936;2023-03-23T02:39:45;99266.00;;;11.77;100.00
28310;BME280;15571;50.974;13.936;2023-03-23T02:42:50;99262.47;;;11.78;100.00
28310;BME280;15571;50.974;13.936;2023-03-23T02:45:58;99267.72;;;11.77;100.00
28310;BME280;15571;50.974;13.936;2023-03-23T02:49:12;99263.31;;;11.79;100.00
28310;BME280;15571;50.974;13.936;2023-03-23T02:52:19;99263.31;;;11.79;100.00
28310;BME280;15571;50.974;13.936;2023-03-23T02:55:24;99258.06;;;11.79;100.00
28310;BME280;15571;50.974;13.936;2023-03-23T02:58:33;99255.44;;;11.80;100.00
28310;BME280;15571;50.974;13.936;2023-03-23T03:01:48;99265.03;;;11.80;100.00
28310;BME280;15571;50.974;13.936;2023-03-23T03:05:01;99258.84;;;11.82;100.00
28310;BME280;15571;50.974;13.936;2023-03-23T03:08:11;99266.75;;;11.81;100.00
28310;BME280;15571;50.974;13.936;2023-03-23T03:11:25;99257.94;;;11.85;100.00
28310;BME280;15571;50.974;13.936;2023-03-23T03:14:30;99251.75;;;11.86;100.00
28310;BME280;15571;50.974;13.936;2023-03-23T03:17:36;99252.59;;;11.88;100.00
28310;BME280;15571;50.974;13.936;2023-03-23T03:20:46;99256.88;;;11.91;100.00
28310;BME280;15571;50.974;13.936;2023-03-23T03:23:50;99255.06;;;11.94;100.00
28310;BME280;15571;50.974;13.936;2023-03-23T03:26:57;99260.25;;;11.97;100.00
28310;BME280;15571;50.974;13.936;2023-03-23T03:30:22;99257.59;;;11.99;100.00
28310;BME280;15571;50.974;13.936;2023-03-23T03:33:28;99253.13;;;12.03;100.00
28310;BME280;15571;50.974;13.936;2023-03-23T03:36:36;99247.81;;;12.04;100.00
28310;BME280;15571;50.974;13.936;2023-03-23T03:39:46;99250.41;;;12.06;100.00
28310;BME280;15571;50.974;13.936;2023-03-23T03:42:50;99246.88;;;12.07;100.00
28310;BME280;15571;50.974;13.936;2023-03-23T03:46:00;99235.47;;;12.08;100.00
28310;BME280;15571;50.974;13.936;2023-03-23T03:49:08;99238.09;;;12.08;100.00
28310;BME280;15571;50.974;13.936;2023-03-23T03:52:14;99233.69;;;12.10;100.00
28310;BME280;15571;50.974;13.936;2023-03-23T03:55:19;99236.25;;;12.11;100.00
28310;BME280;15571;50.974;13.936;2023-03-23T03:58:26;99240.66;;;12.11;100.00
28310;BME280;15571;50.974;13.936;2023-03-23T04:02:03;99234.50;;;12.12;100.00
28310;BME280;15571;50.974;13.936;2023-03-23T04:05:10;99241.47;;;12.13;100.00
28310;BME280;15571;50.974;13.936;2023-03-23T04:08:25;99241.47;;;12.13;100.00
28310;BME280;15571;50.974;13.936;2023-03-23T04:11:31;99237.97;;;12.14;100.00
28310;BME280;15571;50.974;13.936;2023-03-23T04:14:56;99231.81;;;12.13;100.00
28310;BME280;15571;50.974;13.936;2023-03-23T04:18:08;99234.41;;;12.15;100.00
28310;BME280;15571;50.974;13.936;2023-03-23T04:21:18;99228.25;;;12.16;100.00
28310;BME280;15571;50.974;13.936;2023-03-23T04:24:24;99230.88;;;12.16;100.00
28310;BME280;15571;50.974;13.936;2023-03-23T04:27:33;99216.03;;;12.15;100.00
28310;BME280;15571;50.974;13.936;2023-03-23T04:30:42;99215.06;;;12.19;100.00
28310;BME280;15571;50.974;13.936;2023-03-23T04:33:46;99212.38;;;12.21;100.00
28310;BME280;15571;50.974;13.936;2023-03-23T04:36:50;99214.97;;;12.22;100.00
28310;BME280;15571;50.974;13.936;2023-03-23T04:40:05;99205.38;;;12.21;100.00
28310;BME280;15571;50.974;13.936;2023-03-23T04:43:19;99202.69;;;12.24;100.00
28310;BME280;15571;50.974;13.936;2023-03-23T04:46:32;99207.81;;;12.27;100.00
28310;BME280;15571;50.974;13.936;2023-03-23T04:49:41;99201.69;;;12.28;100.00
28310;BME280;15571;50.974;13.936;2023-03-23T04:52:54;99202.56;;;12.27;100.00
28310;BME280;15571;50.974;13.936;2023-03-23T04:55:58;99200.78;;;12.29;100.00
28310;BME280;15571;50.974;13.936;2023-03-23T04:59:10;99204.25;;;12.30;100.00
28310;BME280;15571;50.974;13.936;2023-03-23T05:02:31;99214.72;;;12.32;100.00
28310;BME280;15571;50.974;13.936;2023-03-23T05:05:38;99221.69;;;12.33;100.00
28310;BME280;15571;50.974;13.936;2023-03-23T05:08:42;99228.66;;;12.34;100.00
28310;BME280;15571;50.974;13.936;2023-03-23T05:11:48;99230.34;;;12.35;100.00
28310;BME280;15571;50.974;13.936;2023-03-23T05:14:52;99212.91;;;12.34;100.00
28310;BME280;15571;50.974;13.936;2023-03-23T05:18:02;99203.22;;;12.36;100.00
28310;BME280;15571;50.974;13.936;2023-03-23T05:21:06;99201.41;;;12.38;100.00
28310;BME280;15571;50.974;13.936;2023-03-23T05:24:15;99204.03;;;12.38;100.00
28310;BME280;15571;50.974;13.936;2023-03-23T05:27:26;99211.00;;;12.39;100.00
28310;BME280;15571;50.974;13.936;2023-03-23T05:30:38;99203.94;;;12.41;100.00
28310;BME280;15571;50.974;13.936;2023-03-23T05:33:56;99208.31;;;12.42;100.00
28310;BME280;15571;50.974;13.936;2023-03-23T05:37:08;99207.41;;;12.43;100.00
28310;BME280;15571;50.974;13.936;2023-03-23T05:40:27;99202.16;;;12.43;100.00
28310;BME280;15571;50.974;13.936;2023-03-23T05:43:40;99203.88;;;12.44;100.00
28310;BME280;15571;50.974;13.936;2023-03-23T05:47:03;99201.19;;;12.45;100.00
28310;BME280;15571;50.974;13.936;2023-03-23T05:50:11;99206.34;;;12.49;100.00
28310;BME280;15571;50.974;13.936;2023-03-23T05:53:21;99211.56;;;12.50;100.00
28310;BME280;15571;50.974;13.936;2023-03-23T05:56:28;99215.91;;;12.51;100.00
28310;BME280;15571;50.974;13.936;2023-03-23T05:59:53;99208.84;;;12.53;100.00
28310;BME280;15571;50.974;13.936;2023-03-23T06:02:59;99207.00;;;12.55;100.00
28310;BME280;15571;50.974;13.936;2023-03-23T06:06:10;99210.44;;;12.57;100.00
28310;BME280;15571;50.974;13.936;2023-03-23T06:09:30;99203.41;;;12.59;100.00
28310;BME280;15571;50.974;13.936;2023-03-23T06:12:55;99217.34;;;12.61;100.00
28310;BME280;15571;50.974;13.936;2023-03-23T06:16:15;99212.09;;;12.61;100.00
28310;BME280;15571;50.974;13.936;2023-03-23T06:19:28;99213.69;;;12.66;100.00
28310;BME280;15571;50.974;13.936;2023-03-23T06:22:42;99208.44;;;12.66;100.00
28310;BME280;15571;50.974;13.936;2023-03-23T06:25:53;99206.66;;;12.68;100.00
28310;BME280;15571;50.974;13.936;2023-03-23T06:28:58;99201.41;;;12.68;100.00
28310;BME280;15571;50.974;13.936;2023-03-23T06:32:09;99202.28;;;12.67;100.00
28310;BME280;15571;50.974;13.936;2023-03-23T06:35:18;99201.31;;;12.71;100.00
28310;BME280;15571;50.974;13.936;2023-03-23T06:38:27;99198.56;;;12.74;100.00
28310;BME280;15571;50.974;13.936;2023-03-23T06:41:30;99204.56;;;12.79;100.00
28310;BME280;15571;50.974;13.936;2023-03-23T06:44:36;99206.19;;;12.83;100.00
28310;BME280;15571;50.974;13.936;2023-03-23T06:47:41;99206.00;;;12.89;100.00
28310;BME280;15571;50.974;13.936;2023-03-23T06:50:46;99214.56;;;12.95;100.00
28310;BME280;15571;50.974;13.936;2023-03-23T06:53:53;99221.47;;;12.99;100.00
28310;BME280;15571;50.974;13.936;2023-03-23T06:56:56;99220.47;;;13.03;100.00
28310;BME280;15571;50.974;13.936;2023-03-23T07:00:04;99215.09;;;13.06;100.00
28310;BME280;15571;50.974;13.936;2023-03-23T07:03:19;99225.59;;;13.06;100.00
28310;BME280;15571;50.974;13.936;2023-03-23T07:06:25;99225.47;;;13.11;100.00
28310;BME280;15571;50.974;13.936;2023-03-23T07:09:34;99227.94;;;13.15;100.00
28310;BME280;15571;50.974;13.936;2023-03-23T07:12:39;99221.59;;;13.22;100.00
28310;BME280;15571;50.974;13.936;2023-03-23T07:15:44;99231.91;;;13.29;100.00
28310;BME280;15571;50.974;13.936;2023-03-23T07:18:53;99236.94;;;13.35;100.00
28310;BME280;15571;50.974;13.936;2023-03-23T07:21:56;99235.97;;;13.39;100.00
28310;BME280;15571;50.974;13.936;2023-03-23T07:25:07;99229.69;;;13.43;100.00
28310;BME280;15571;50.974;13.936;2023-03-23T07:28:23;99231.09;;;13.53;100.00
28310;BME280;15571;50.974;13.936;2023-03-23T07:31:30;99232.56;;;13.62;100.00
28310;BME280;15571;50.974;13.936;2023-03-23T07:34:35;99241.94;;;13.71;100.00
28310;BME280;15571;50.974;13.936;2023-03-23T07:38:07;99243.31;;;13.81;100.00
28310;BME280;15571;50.974;13.936;2023-03-23T07:41:10;99246.56;;;13.90;100.00
28310;BME280;15571;50.974;13.936;2023-03-23T07:44:16;99251.50;;;13.99;100.00
28310;BME280;15571;50.974;13.936;2023-03-23T07:47:21;99254.81;;;14.04;100.00
28310;BME280;15571;50.974;13.936;2023-03-23T07:50:25;99255.38;;;14.12;100.00
28310;BME280;15571;50.974;13.936;2023-03-23T07:53:33;99259.75;;;14.13;100.00
28310;BME280;15571;50.974;13.936;2023-03-23T07:57:04;99257.53;;;14.26;100.00
28310;BME280;15571;50.974;13.936;2023-03-23T08:00:15;99262.59;;;14.32;100.00
28310;BME280;15571;50.974;13.936;2023-03-23T08:03:21;99264.97;;;14.39;100.00
28310;BME280;15571;50.974;13.936;2023-03-23T08:06:59;99269.06;;;14.47;100.00
28310;BME280;15571;50.974;13.936;2023-03-23T08:10:22;99267.91;;;14.55;100.00
28310;BME280;15571;50.974;13.936;2023-03-23T08:14:03;99264.25;;;14.59;100.00
28310;BME280;15571;50.974;13.936;2023-03-23T08:17:11;99269.34;;;14.63;100.00
28310;BME280;15571;50.974;13.936;2023-03-23T08:20:41;99267.50;;;14.67;100.00
28310;BME280;15571;50.974;13.936;2023-03-23T08:23:57;99271.72;;;14.71;100.00
28310;BME280;15571;50.974;13.936;2023-03-23T08:27:19;99273.25;;;14.77;100.00
28310;BME280;15571;50.974;13.936;2023-03-23T08:30:34;99282.88;;;14.78;100.00
28310;BME280;15571;50.974;13.936;2023-03-23T08:34:00;99283.75;;;14.78;100.00
28310;BME280;15571;50.974;13.936;2023-03-23T08:37:27;99289.75;;;14.82;100.00
28310;BME280;15571;50.974;13.936;2023-03-23T08:40:38;99285.28;;;14.84;100.00
28310;BME280;15571;50.974;13.936;2023-03-23T08:43:47;99292.34;;;14.84;100.00
28310;BME280;15571;50.974;13.936;2023-03-23T08:47:12;99292.44;;;14.81;100.00
28310;BME280;15571;50.974;13.936;2023-03-23T08:50:47;99298.63;;;14.79;100.00
28310;BME280;15571;50.974;13.936;2023-03-23T08:54:15;99287.06;;;14.84;100.00
28310;BME280;15571;50.974;13.936;2023-03-23T08:57:21;99292.34;;;14.84;100.00
28310;BME280;15571;50.974;13.936;2023-03-23T09:00:41;99287.88;;;14.86;100.00
28310;BME280;15571;50.974;13.936;2023-03-23T09:03:52;99297.53;;;14.85;100.00
28310;BME280;15571;50.974;13.936;2023-03-23T09:07:14;99298.50;;;14.83;100.00
28310;BME280;15571;50.974;13.936;2023-03-23T09:10:17;99300.16;;;14.85;100.00
28310;BME280;15571;50.974;13.936;2023-03-23T09:13:23;99294.06;;;14.85;100.00
28310;BME280;15571;50.974;13.936;2023-03-23T09:16:35;99301.16;;;14.83;100.00
28310;BME280;15571;50.974;13.936;2023-03-23T09:19:48;99288.97;;;14.80;100.00
28310;BME280;15571;50.974;13.936;2023-03-23T09:22:56;99299.31;;;14.85;100.00
28310;BME280;15571;50.974;13.936;2023-03-23T09:26:02;99303.72;;;14.84;100.00
28310;BME280;15571;50.974;13.936;2023-03-23T09:29:06;99306.31;;;14.86;100.00
28310;BME280;15571;50.974;13.936;2023-03-23T09:32:30;99299.22;;;14.88;100.00
28310;BME280;15571;50.974;13.936;2023-03-23T09:35:36;99305.25;;;14.90;100.00
28310;BME280;15571;50.974;13.936;2023-03-23T09:38:50;99320.13;;;14.92;100.00
28310;BME280;15571;50.974;13.936;2023-03-23T09:42:00;99309.50;;;14.94;100.00
28310;BME280;15571;50.974;13.936;2023-03-23T09:45:18;99312.94;;;14.96;100.00
28310;BME280;15571;50.974;13.936;2023-03-23T09:48:36;99321.53;;;15.01;100.00
28310;BME280;15571;50.974;13.936;2023-03-23T09:51:51;99327.72;;;15.00;100.00
28310;BME280;15571;50.974;13.936;2023-03-23T09:55:03;99331.97;;;15.04;100.00
28310;BME280;15571;50.974;13.936;2023-03-23T09:58:10;99331.84;;;15.07;100.00
28310;BME280;15571;50.974;13.936;2023-03-23T10:01:19;99332.59;;;15.11;100.00
28310;BME280;15571;50.974;13.936;2023-03-23T10:04:34;99332.59;;;15.11;100.00
28310;BME280;15571;50.974;13.936;2023-03-23T10:07:44;99328.16;;;15.12;100.00
28310;BME280;15571;50.974;13.936;2023-03-23T10:10:58;99338.66;;;15.13;100.00
28310;BME280;15571;50.974;13.936;2023-03-23T10:14:14;99326.34;;;15.14;100.00
28310;BME280;15571;50.974;13.936;2023-03-23T10:17:22;99329.81;;;15.14;100.00
28310;BME280;15571;50.974;13.936;2023-03-23T10:20:35;99328.06;;;15.15;100.00
28310;BME280;15571;50.974;13.936;2023-03-23T10:23:54;99339.44;;;15.15;100.00
28310;BME280;15571;50.974;13.936;2023-03-23T10:27:01;99329.88;;;15.13;100.00
28310;BME280;15571;50.974;13.936;2023-03-23T10:30:11;99327.25;;;15.13;100.00
28310;BME280;15571;50.974;13.936;2023-03-23T10:33:25;99323.59;;;15.17;100.00
28310;BME280;15571;50.974;13.936;2023-03-23T10:36:35;99327.94;;;15.18;100.00
28310;BME280;15571;50.974;13.936;2023-03-23T10:39:43;99320.94;;;15.17;100.00
28310;BME280;15571;50.974;13.936;2023-03-23T10:42:51;99324.25;;;15.22;100.00
28310;BME280;15571;50.974;13.936;2023-03-23T10:45:57;99319.91;;;15.21;100.00
28310;BME280;15571;50.974;13.936;2023-03-23T10:49:09;99318.06;;;15.23;100.00
28310;BME280;15571;50.974;13.936;2023-03-23T10:52:25;99310.97;;;15.25;100.00
28310;BME280;15571;50.974;13.936;2023-03-23T10:55:38;99308.22;;;15.28;100.00
28310;BME280;15571;50.974;13.936;2023-03-23T10:58:43;99302.78;;;15.31;100.00
28310;BME280;15571;50.974;13.936;2023-03-23T11:01:50;99304.53;;;15.32;100.00
28310;BME280;15571;50.974;13.936;2023-03-23T11:04:59;99303.53;;;15.35;100.00
28310;BME280;15571;50.974;13.936;2023-03-23T11:08:10;99307.78;;;15.39;100.00
28310;BME280;15571;50.974;13.936;2023-03-23T11:11:24;99316.53;;;15.39;100.00
28310;BME280;15571;50.974;13.936;2023-03-23T11:14:31;99307.69;;;15.40;100.00
28310;BME280;15571;50.974;13.936;2023-03-23T11:17:39;99321.63;;;15.44;100.00
28310;BME280;15571;50.974;13.936;2023-03-23T11:20:44;99320.69;;;15.45;100.00
28310;BME280;15571;50.974;13.936;2023-03-23T11:23:56;99318.97;;;15.44;100.00
28310;BME280;15571;50.974;13.936;2023-03-23T11:27:01;99321.56;;;15.46;100.00
28310;BME280;15571;50.974;13.936;2023-03-23T11:30:08;99318.03;;;15.47;100.00
28310;BME280;15571;50.974;13.936;2023-03-23T11:33:15;99323.34;;;15.45;100.00
28310;BME280;15571;50.974;13.936;2023-03-23T11:36:30;99321.56;;;15.46;100.00
28310;BME280;15571;50.974;13.936;2023-03-23T11:39:45;99313.78;;;15.43;100.00
28310;BME280;15571;50.974;13.936;2023-03-23T11:42:58;99305.75;;;15.46;100.00
28310;BME280;15571;50.974;13.936;2023-03-23T11:46:05;99303.03;;;15.47;100.00
28310;BME280;15571;50.974;13.936;2023-03-23T11:49:12;99316.16;;;15.49;100.00
28310;BME280;15571;50.974;13.936;2023-03-23T11:52:23;99324.22;;;15.46;100.00
28310;BME280;15571;50.974;13.936;2023-03-23T11:55:29;99324.16;;;15.47;100.00
28310;BME280;15571;50.974;13.936;2023-03-23T11:58:34;99338.13;;;15.49;100.00
28310;BME280;15571;50.974;13.936;2023-03-23T12:01:47;99345.97;;;15.51;100.00
28310;BME280;15571;50.974;13.936;2023-03-23T12:05:01;99362.78;;;15.48;100.00
28310;BME280;15571;50.974;13.936;2023-03-23T12:08:32;99350.50;;;15.47;100.00
28310;BME280;15571;50.974;13.936;2023-03-23T12:11:38;99358.34;;;15.49;100.00
28310;BME280;15571;50.974;13.936;2023-03-23T12:14:44;99360.06;;;15.50;100.00
28310;BME280;15571;50.974;13.936;2023-03-23T12:18:01;99356.66;;;15.48;100.00
28310;BME280;15571;50.974;13.936;2023-03-23T12:21:08;99350.41;;;15.50;100.00
28310;BME280;15571;50.974;13.936;2023-03-23T12:24:24;99357.31;;;15.53;100.00
28310;BME280;15571;50.974;13.936;2023-03-23T12:27:34;99352.91;;;15.53;100.00
28310;BME280;15571;50.974;13.936;2023-03-23T12:30:39;99359.34;;;15.46;100.00
28310;BME280;15571;50.974;13.936;2023-03-23T12:33:48;99358.34;;;15.49;100.00
28310;BME280;15571;50.974;13.936;2023-03-23T12:37:01;99362.72;;;15.50;100.00
28310;BME280;15571;50.974;13.936;2023-03-23T12:43:34;99351.13;;;15.54;100.00
28310;BME280;15571;50.974;13.936;2023-03-23T12:46:46;99347.59;;;15.55;100.00
28310;BME280;15571;50.974;13.936;2023-03-23T12:49:54;99344.03;;;15.56;100.00
28310;BME280;15571;50.974;13.936;2023-03-23T12:53:06;99331.75;;;15.55;100.00
28310;BME280;15571;50.974;13.936;2023-03-23T12:56:25;99326.34;;;15.58;100.00
28310;BME280;15571;50.974;13.936;2023-03-23T12:59:41;99321.06;;;15.58;100.00
28310;BME280;15571;50.974;13.936;2023-03-23T13:02:48;99319.22;;;15.60;100.00
28310;BME280;15571;50.974;13.936;2023-03-23T13:05:53;99325.38;;;15.61;100.00
28310;BME280;15571;50.974;13.936;2023-03-23T13:09:01;99328.78;;;15.63;100.00
28310;BME280;15571;50.974;13.936;2023-03-23T13:12:09;99316.41;;;15.65;100.00
28310;BME280;15571;50.974;13.936;2023-03-23T13:15:18;99320.75;;;15.66;100.00
28310;BME280;15571;50.974;13.936;2023-03-23T13:18:25;99320.56;;;15.70;100.00
28310;BME280;15571;50.974;13.936;2023-03-23T13:21:34;99319.56;;;15.73;100.00
28310;BME280;15571;50.974;13.936;2023-03-23T13:24:43;99325.66;;;15.75;100.00
28310;BME280;15571;50.974;13.936;2023-03-23T13:27:57;99322.03;;;15.78;100.00
28310;BME280;15571;50.974;13.936;2023-03-23T13:31:12;99324.63;;;15.79;100.00
28310;BME280;15571;50.974;13.936;2023-03-23T13:34:17;99320.19;;;15.80;100.00
28310;BME280;15571;50.974;13.936;2023-03-23T13:37:24;99311.47;;;15.78;100.00
28310;BME280;15571;50.974;13.936;2023-03-23T13:40:28;99309.78;;;15.77;100.00
28310;BME280;15571;50.974;13.936;2023-03-23T13:43:33;99311.63;;;15.75;100.00
28310;BME280;15571;50.974;13.936;2023-03-23T13:46:52;99310.00;;;15.70;100.00
28310;BME280;15571;50.974;13.936;2023-03-23T13:50:02;99298.81;;;15.65;100.00
28310;BME280;15571;50.974;13.936;2023-03-23T13:53:20;99296.03;;;15.68;100.00
28310;BME280;15571;50.974;13.936;2023-03-23T13:56:32;99292.41;;;15.71;100.00
28310;BME280;15571;50.974;13.936;2023-03-23T13:59:46;99266.81;;;15.73;100.00
28310;BME280;15571;50.974;13.936;2023-03-23T14:02:50;99266.56;;;15.79;100.00
28310;BME280;15571;50.974;13.936;2023-03-23T14:06:01;99267.25;;;15.84;100.00
28310;BME280;15571;50.974;13.936;2023-03-23T14:09:28;99258.22;;;15.90;100.00
28310;BME280;15571;50.974;13.936;2023-03-23T14:12:36;99267.56;;;15.97;100.00
28310;BME280;15571;50.974;13.936;2023-03-23T14:15:43;99269.03;;;16.05;100.00
28310;BME280;15571;50.974;13.936;2023-03-23T14:18:51;99264.22;;;16.14;100.00
28310;BME280;15571;50.974;13.936;2023-03-23T14:21:57;99249.88;;;16.20;100.00
28310;BME280;15571;50.974;13.936;2023-03-23T14:25:10;99252.41;;;16.23;100.00
28310;BME280;15571;50.974;13.936;2023-03-23T14:28:19;99261.09;;;16.25;100.00
28310;BME280;15571;50.974;13.936;2023-03-23T14:31:30;99251.19;;;16.30;100.00
28310;BME280;15571;50.974;13.936;2023-03-23T14:34:35;99245.78;;;16.33;100.00
28310;BME280;15571;50.974;13.936;2023-03-23T14:37:50;99244.06;;;16.32;100.00
28310;BME280;15571;50.974;13.936;2023-03-23T14:45:10;99256.94;;;16.40;100.00
28310;BME280;15571;50.974;13.936;2023-03-23T14:48:19;99253.34;;;16.41;100.00
28310;BME280;15571;50.974;13.936;2023-03-23T14:51:27;99257.66;;;16.44;100.00
28310;BME280;15571;50.974;13.936;2023-03-23T14:54:36;99262.63;;;16.50;100.00
28310;BME280;15571;50.974;13.936;2023-03-23T14:57:46;99253.72;;;16.53;100.00
28310;BME280;15571;50.974;13.936;2023-03-23T15:00:54;99255.38;;;16.55;100.00
28310;BME280;15571;50.974;13.936;2023-03-23T15:04:04;99256.22;;;16.56;100.00
28310;BME280;15571;50.974;13.936;2023-03-23T15:07:12;99258.94;;;16.54;100.00
28310;BME280;15571;50.974;13.936;2023-03-23T15:10:19;99261.63;;;16.53;100.00
28310;BME280;15571;50.974;13.936;2023-03-23T15:13:23;99266.91;;;16.53;100.00
28310;BME280;15571;50.974;13.936;2023-03-23T15:16:29;99256.34;;;16.53;100.00
28310;BME280;15571;50.974;13.936;2023-03-23T15:19:32;99262.63;;;16.50;100.00
28310;BME280;15571;50.974;13.936;2023-03-23T15:22:44;99260.13;;;16.47;100.00
28310;BME280;15571;50.974;13.936;2023-03-23T15:25:47;99255.94;;;16.43;100.00
28310;BME280;15571;50.974;13.936;2023-03-23T15:28:58;99262.34;;;16.37;100.00
28310;BME280;15571;50.974;13.936;2023-03-23T15:32:03;99260.63;;;16.36;100.00
28310;BME280;15571;50.974;13.936;2023-03-23T15:35:11;99266.91;;;16.33;100.00
28310;BME280;15571;50.974;13.936;2023-03-23T15:38:21;99267.94;;;16.29;100.00
28310;BME280;15571;50.974;13.936;2023-03-23T15:41:24;99284.72;;;16.28;100.00
28310;BME280;15571;50.974;13.936;2023-03-23T15:44:31;99291.00;;;16.26;100.00
28310;BME280;15571;50.974;13.936;2023-03-23T15:47:43;99291.13;;;16.23;100.00
28310;BME280;15571;50.974;13.936;2023-03-23T15:50:49;99296.59;;;16.18;100.00
28310;BME280;15571;50.974;13.936;2023-03-23T15:53:56;99286.97;;;16.17;100.00
28310;BME280;15571;50.974;13.936;2023-03-23T15:57:02;99300.16;;;16.17;100.00
28310;BME280;15571;50.974;13.936;2023-03-23T16:00:06;99294.97;;;16.15;100.00
28310;BME280;15571;50.974;13.936;2023-03-23T16:03:12;99306.66;;;16.10;100.00
28310;BME280;15571;50.974;13.936;2023-03-23T16:06:18;99312.81;;;16.10;100.00
28310;BME280;15571;50.974;13.936;2023-03-23T16:09:23;99304.94;;;16.09;100.00
28310;BME280;15571;50.974;13.936;2023-03-23T16:12:29;99313.84;;;16.06;100.00
28310;BME280;15571;50.974;13.936;2023-03-23T16:15:33;99320.13;;;16.03;100.00
28310;BME280;15571;50.974;13.936;2023-03-23T16:18:45;99316.59;;;16.03;100.00
28310;BME280;15571;50.974;13.936;2023-03-23T16:21:49;99319.44;;;15.98;100.00
28310;BME280;15571;50.974;13.936;2023-03-23T16:24:54;99321.31;;;15.96;100.00
28310;BME280;15571;50.974;13.936;2023-03-23T16:28:01;99328.44;;;15.94;100.00
28310;BME280;15571;50.974;13.936;2023-03-23T16:31:09;99323.16;;;15.94;100.00
28310;BME280;15571;50.974;13.936;2023-03-23T16:34:14;99323.28;;;15.91;100.00
28310;BME280;15571;50.974;13.936;2023-03-23T16:37:18;99339.19;;;15.90;100.00
28310;BME280;15571;50.974;13.936;2023-03-23T16:40:24;99340.16;;;15.87;100.00
28310;BME280;15571;50.974;13.936;2023-03-23T16:43:28;99349.06;;;15.84;100.00
28310;BME280;15571;50.974;13.936;2023-03-23T16:46:34;99344.72;;;15.82;100.00
28310;BME280;15571;50.974;13.936;2023-03-23T16:49:36;99355.38;;;15.80;100.00
28310;BME280;15571;50.974;13.936;2023-03-23T16:52:39;99349.28;;;15.78;100.00
28310;BME280;15571;50.974;13.936;2023-03-23T16:55:48;99360.94;;;15.72;100.00
28310;BME280;15571;50.974;13.936;2023-03-23T16:59:19;99354.03;;;15.70;100.00
28310;BME280;15571;50.974;13.936;2023-03-23T17:03:14;99353.31;;;15.65;100.00
28310;BME280;15571;50.974;13.936;2023-03-23T17:06:22;99363.03;;;15.64;100.00